Falconbridge, Canada
Current Conditions -  °F | °C
As of 4:00 PM on Monday 24 Nov 2014 (Local Time) from CYSB Reporting Station
Light Rain Light Rain  
Wind Chill: 38°   Ceiling: 300
Heat Index: 45°   Visibility: 20mi
Dew Point: 43°   Wind: 13mph
Humidity: 93%   Direction: 250°WSW
Pressure: 28.97"   Gusts: 22mph
Location:  46.58°N, 80.81°W
Report Text: CYSB 242100Z 25011G19KT 20SM -RA OVC003 07/06 A2897 RMK SC8 PCPN VRY LGT SLP819 DENSITY ALT 1500FT
Loading
Personal Weather Stations






























Interactive Weather Map New forecast layout! Learn more

10-Day Weather Forecast

Advertisements
Track Severe Weather on mobile